sensor_id;sensor_type;location;lat;lon;timestamp;P1;durP1;ratioP1;P2;durP2;ratioP2
19036;SDS011;9651;49.138;8.900;2023-07-29T00:02:32;2.50;;;2.30;;
19036;SDS011;9651;49.138;8.900;2023-07-29T00:06:34;4.33;;;3.00;;
19036;SDS011;9651;49.138;8.900;2023-07-29T00:10:37;2.87;;;2.67;;
19036;SDS011;9651;49.138;8.900;2023-07-29T00:14:39;3.80;;;2.20;;
19036;SDS011;9651;49.138;8.900;2023-07-29T00:18:41;3.97;;;2.37;;
19036;SDS011;9651;49.138;8.900;2023-07-29T00:22:43;3.37;;;2.30;;
19036;SDS011;9651;49.138;8.900;2023-07-29T00:26:46;2.57;;;1.80;;
19036;SDS011;9651;49.138;8.900;2023-07-29T00:30:48;2.13;;;1.73;;
19036;SDS011;9651;49.138;8.900;2023-07-29T00:34:50;1.97;;;1.77;;
19036;SDS011;9651;49.138;8.900;2023-07-29T00:38:52;2.13;;;1.73;;
19036;SDS011;9651;49.138;8.900;2023-07-29T00:42:58;2.57;;;1.50;;
19036;SDS011;9651;49.138;8.900;2023-07-29T00:47:00;1.80;;;1.70;;
19036;SDS011;9651;49.138;8.900;2023-07-29T00:51:04;1.70;;;1.60;;
19036;SDS011;9651;49.138;8.900;2023-07-29T00:55:06;3.87;;;1.70;;
19036;SDS011;9651;49.138;8.900;2023-07-29T00:59:10;2.20;;;1.80;;
19036;SDS011;9651;49.138;8.900;2023-07-29T01:03:12;4.00;;;1.90;;
19036;SDS011;9651;49.138;8.900;2023-07-29T01:07:18;2.83;;;1.80;;
19036;SDS011;9651;49.138;8.900;2023-07-29T01:11:27;2.33;;;1.95;;
19036;SDS011;9651;49.138;8.900;2023-07-29T01:15:40;7.82;;;1.83;;
19036;SDS011;9651;49.138;8.900;2023-07-29T01:19:54;3.73;;;1.83;;
19036;SDS011;9651;49.138;8.900;2023-07-29T01:24:02;1.80;;;1.70;;
19036;SDS011;9651;49.138;8.900;2023-07-29T01:28:05;1.97;;;1.50;;
19036;SDS011;9651;49.138;8.900;2023-07-29T01:32:08;3.23;;;1.50;;
19036;SDS011;9651;49.138;8.900;2023-07-29T01:36:15;4.57;;;1.63;;
19036;SDS011;9651;49.138;8.900;2023-07-29T01:40:24;2.87;;;1.83;;
19036;SDS011;9651;49.138;8.900;2023-07-29T01:44:28;2.80;;;1.60;;
19036;SDS011;9651;49.138;8.900;2023-07-29T01:48:30;3.27;;;1.73;;
19036;SDS011;9651;49.138;8.900;2023-07-29T01:52:32;4.17;;;1.70;;
19036;SDS011;9651;49.138;8.900;2023-07-29T01:56:36;2.67;;;1.70;;
19036;SDS011;9651;49.138;8.900;2023-07-29T02:00:38;2.80;;;1.53;;
19036;SDS011;9651;49.138;8.900;2023-07-29T02:04:40;2.57;;;1.77;;
19036;SDS011;9651;49.138;8.900;2023-07-29T02:08:42;2.67;;;1.50;;
19036;SDS011;9651;49.138;8.900;2023-07-29T02:12:45;1.93;;;1.47;;
19036;SDS011;9651;49.138;8.900;2023-07-29T02:16:47;2.47;;;1.77;;
19036;SDS011;9651;49.138;8.900;2023-07-29T02:20:49;3.00;;;1.23;;
19036;SDS011;9651;49.138;8.900;2023-07-29T02:24:51;4.20;;;1.70;;
19036;SDS011;9651;49.138;8.900;2023-07-29T02:28:54;1.90;;;1.30;;
19036;SDS011;9651;49.138;8.900;2023-07-29T02:32:56;3.97;;;1.53;;
19036;SDS011;9651;49.138;8.900;2023-07-29T02:36:59;3.40;;;1.43;;
19036;SDS011;9651;49.138;8.900;2023-07-29T02:41:01;3.07;;;1.60;;
19036;SDS011;9651;49.138;8.900;2023-07-29T02:45:05;2.83;;;1.27;;
19036;SDS011;9651;49.138;8.900;2023-07-29T02:49:09;1.20;;;1.10;;
19036;SDS011;9651;49.138;8.900;2023-07-29T02:53:11;4.30;;;1.00;;
19036;SDS011;9651;49.138;8.900;2023-07-29T02:57:13;1.83;;;0.90;;
19036;SDS011;9651;49.138;8.900;2023-07-29T03:01:16;1.60;;;0.97;;
19036;SDS011;9651;49.138;8.900;2023-07-29T03:05:19;3.35;;;1.90;;
19036;SDS011;9651;49.138;8.900;2023-07-29T03:09:21;1.10;;;1.00;;
19036;SDS011;9651;49.138;8.900;2023-07-29T03:13:23;2.70;;;1.30;;
19036;SDS011;9651;49.138;8.900;2023-07-29T03:17:26;1.50;;;1.20;;
19036;SDS011;9651;49.138;8.900;2023-07-29T03:21:28;2.07;;;1.00;;
19036;SDS011;9651;49.138;8.900;2023-07-29T03:25:30;3.20;;;1.20;;
19036;SDS011;9651;49.138;8.900;2023-07-29T03:29:32;4.10;;;1.73;;
19036;SDS011;9651;49.138;8.900;2023-07-29T03:33:35;2.43;;;1.33;;
19036;SDS011;9651;49.138;8.900;2023-07-29T03:37:37;2.53;;;1.20;;
19036;SDS011;9651;49.138;8.900;2023-07-29T03:41:39;3.90;;;1.63;;
19036;SDS011;9651;49.138;8.900;2023-07-29T03:45:41;2.33;;;1.70;;
19036;SDS011;9651;49.138;8.900;2023-07-29T03:49:44;3.43;;;1.60;;
19036;SDS011;9651;49.138;8.900;2023-07-29T03:53:47;4.53;;;1.37;;
19036;SDS011;9651;49.138;8.900;2023-07-29T03:57:49;3.93;;;1.60;;
19036;SDS011;9651;49.138;8.900;2023-07-29T04:01:51;3.40;;;1.60;;
19036;SDS011;9651;49.138;8.900;2023-07-29T04:05:55;1.83;;;1.40;;
19036;SDS011;9651;49.138;8.900;2023-07-29T04:09:57;3.67;;;1.40;;
19036;SDS011;9651;49.138;8.900;2023-07-29T04:13:59;3.47;;;1.60;;
19036;SDS011;9651;49.138;8.900;2023-07-29T04:18:01;1.87;;;1.37;;
19036;SDS011;9651;49.138;8.900;2023-07-29T04:22:04;2.57;;;1.77;;
19036;SDS011;9651;49.138;8.900;2023-07-29T04:26:06;3.15;;;1.67;;
19036;SDS011;9651;49.138;8.900;2023-07-29T04:30:08;4.17;;;2.10;;
19036;SDS011;9651;49.138;8.900;2023-07-29T04:34:10;10.10;;;2.33;;
19036;SDS011;9651;49.138;8.900;2023-07-29T04:38:14;2.50;;;1.70;;
19036;SDS011;9651;49.138;8.900;2023-07-29T04:42:16;3.00;;;1.50;;
19036;SDS011;9651;49.138;8.900;2023-07-29T04:46:18;3.00;;;1.80;;
19036;SDS011;9651;49.138;8.900;2023-07-29T04:50:20;1.40;;;1.30;;
19036;SDS011;9651;49.138;8.900;2023-07-29T04:54:23;8.47;;;1.70;;
19036;SDS011;9651;49.138;8.900;2023-07-29T04:58:25;6.23;;;2.03;;
19036;SDS011;9651;49.138;8.900;2023-07-29T05:02:29;3.00;;;1.80;;
19036;SDS011;9651;49.138;8.900;2023-07-29T05:06:31;2.30;;;1.27;;
19036;SDS011;9651;49.138;8.900;2023-07-29T05:10:35;3.27;;;1.77;;
19036;SDS011;9651;49.138;8.900;2023-07-29T05:14:37;7.33;;;2.20;;
19036;SDS011;9651;49.138;8.900;2023-07-29T05:18:39;4.87;;;1.80;;
19036;SDS011;9651;49.138;8.900;2023-07-29T05:22:41;2.27;;;1.30;;
19036;SDS011;9651;49.138;8.900;2023-07-29T05:26:44;4.72;;;1.63;;
19036;SDS011;9651;49.138;8.900;2023-07-29T05:30:46;2.58;;;1.52;;
19036;SDS011;9651;49.138;8.900;2023-07-29T05:34:48;4.93;;;3.07;;
19036;SDS011;9651;49.138;8.900;2023-07-29T05:38:50;4.18;;;2.90;;
19036;SDS011;9651;49.138;8.900;2023-07-29T05:42:54;2.65;;;2.05;;
19036;SDS011;9651;49.138;8.900;2023-07-29T05:46:57;3.10;;;1.50;;
19036;SDS011;9651;49.138;8.900;2023-07-29T05:50:59;2.72;;;1.63;;
19036;SDS011;9651;49.138;8.900;2023-07-29T05:55:01;3.53;;;1.42;;
19036;SDS011;9651;49.138;8.900;2023-07-29T05:59:06;1.77;;;1.23;;
19036;SDS011;9651;49.138;8.900;2023-07-29T06:03:08;2.38;;;1.30;;
19036;SDS011;9651;49.138;8.900;2023-07-29T06:07:10;4.97;;;1.58;;
19036;SDS011;9651;49.138;8.900;2023-07-29T06:11:12;1.45;;;1.20;;
19036;SDS011;9651;49.138;8.900;2023-07-29T06:15:15;3.08;;;1.70;;
19036;SDS011;9651;49.138;8.900;2023-07-29T06:19:17;1.55;;;1.23;;
19036;SDS011;9651;49.138;8.900;2023-07-29T06:23:19;2.80;;;1.40;;
19036;SDS011;9651;49.138;8.900;2023-07-29T06:27:21;2.33;;;1.40;;
19036;SDS011;9651;49.138;8.900;2023-07-29T06:31:26;2.85;;;1.85;;
19036;SDS011;9651;49.138;8.900;2023-07-29T06:35:28;2.72;;;1.65;;
19036;SDS011;9651;49.138;8.900;2023-07-29T06:39:31;2.38;;;1.88;;
19036;SDS011;9651;49.138;8.900;2023-07-29T06:43:33;2.88;;;1.80;;
19036;SDS011;9651;49.138;8.900;2023-07-29T06:47:36;2.75;;;1.30;;
19036;SDS011;9651;49.138;8.900;2023-07-29T06:51:38;1.80;;;1.27;;
19036;SDS011;9651;49.138;8.900;2023-07-29T06:55:40;3.90;;;2.20;;
19036;SDS011;9651;49.138;8.900;2023-07-29T06:59:42;4.00;;;1.70;;
19036;SDS011;9651;49.138;8.900;2023-07-29T07:03:45;1.70;;;1.42;;
19036;SDS011;9651;49.138;8.900;2023-07-29T07:07:47;1.98;;;1.33;;
19036;SDS011;9651;49.138;8.900;2023-07-29T07:11:49;4.35;;;1.08;;
19036;SDS011;9651;49.138;8.900;2023-07-29T07:15:53;3.13;;;1.20;;
19036;SDS011;9651;49.138;8.900;2023-07-29T07:19:57;2.33;;;1.08;;
19036;SDS011;9651;49.138;8.900;2023-07-29T07:23:59;2.72;;;1.08;;
19036;SDS011;9651;49.138;8.900;2023-07-29T07:28:01;2.97;;;1.08;;
19036;SDS011;9651;49.138;8.900;2023-07-29T07:32:03;2.42;;;1.23;;
19036;SDS011;9651;49.138;8.900;2023-07-29T07:36:06;3.30;;;1.10;;
19036;SDS011;9651;49.138;8.900;2023-07-29T07:40:08;2.17;;;1.33;;
19036;SDS011;9651;49.138;8.900;2023-07-29T07:44:11;1.27;;;1.08;;
19036;SDS011;9651;49.138;8.900;2023-07-29T07:48:15;2.75;;;1.10;;
19036;SDS011;9651;49.138;8.900;2023-07-29T07:52:19;1.17;;;1.08;;
19036;SDS011;9651;49.138;8.900;2023-07-29T07:56:20;4.60;;;1.50;;
19036;SDS011;9651;49.138;8.900;2023-07-29T08:00:22;2.13;;;1.30;;
19036;SDS011;9651;49.138;8.900;2023-07-29T08:04:24;1.67;;;1.23;;
19036;SDS011;9651;49.138;8.900;2023-07-29T08:08:27;2.35;;;1.05;;
19036;SDS011;9651;49.138;8.900;2023-07-29T08:12:29;1.50;;;1.10;;
19036;SDS011;9651;49.138;8.900;2023-07-29T08:16:31;1.65;;;1.05;;
19036;SDS011;9651;49.138;8.900;2023-07-29T08:20:33;1.65;;;1.20;;
19036;SDS011;9651;49.138;8.900;2023-07-29T08:24:36;2.10;;;1.30;;
19036;SDS011;9651;49.138;8.900;2023-07-29T08:28:38;3.13;;;1.48;;
19036;SDS011;9651;49.138;8.900;2023-07-29T08:32:40;1.98;;;1.27;;
19036;SDS011;9651;49.138;8.900;2023-07-29T08:36:42;4.63;;;1.38;;
19036;SDS011;9651;49.138;8.900;2023-07-29T08:40:48;1.83;;;1.38;;
19036;SDS011;9651;49.138;8.900;2023-07-29T08:44:53;1.23;;;1.02;;
19036;SDS011;9651;49.138;8.900;2023-07-29T08:48:57;1.10;;;1.00;;
19036;SDS011;9651;49.138;8.900;2023-07-29T08:53:01;3.50;;;1.30;;
19036;SDS011;9651;49.138;8.900;2023-07-29T08:57:07;2.70;;;1.27;;
19036;SDS011;9651;49.138;8.900;2023-07-29T09:01:09;2.55;;;1.30;;
19036;SDS011;9651;49.138;8.900;2023-07-29T09:05:11;1.55;;;1.10;;
19036;SDS011;9651;49.138;8.900;2023-07-29T09:09:13;1.83;;;1.33;;
19036;SDS011;9651;49.138;8.900;2023-07-29T09:13:17;2.17;;;1.42;;
19036;SDS011;9651;49.138;8.900;2023-07-29T09:17:18;1.30;;;1.08;;
19036;SDS011;9651;49.138;8.900;2023-07-29T09:21:22;1.58;;;1.20;;
19036;SDS011;9651;49.138;8.900;2023-07-29T09:25:25;1.38;;;1.00;;
19036;SDS011;9651;49.138;8.900;2023-07-29T09:29:29;1.60;;;1.10;;
19036;SDS011;9651;49.138;8.900;2023-07-29T09:33:33;4.45;;;2.00;;
19036;SDS011;9651;49.138;8.900;2023-07-29T09:37:37;1.98;;;0.95;;
19036;SDS011;9651;49.138;8.900;2023-07-29T09:41:39;5.05;;;1.50;;
19036;SDS011;9651;49.138;8.900;2023-07-29T09:45:42;1.30;;;1.20;;
19036;SDS011;9651;49.138;8.900;2023-07-29T09:49:47;1.60;;;1.10;;
19036;SDS011;9651;49.138;8.900;2023-07-29T09:53:50;2.08;;;1.58;;
19036;SDS011;9651;49.138;8.900;2023-07-29T09:57:56;0.93;;;0.85;;
19036;SDS011;9651;49.138;8.900;2023-07-29T10:02:01;0.75;;;0.65;;
19036;SDS011;9651;49.138;8.900;2023-07-29T10:06:04;1.02;;;0.77;;
19036;SDS011;9651;49.138;8.900;2023-07-29T10:10:08;2.35;;;0.95;;
19036;SDS011;9651;49.138;8.900;2023-07-29T10:14:10;1.10;;;0.77;;
19036;SDS011;9651;49.138;8.900;2023-07-29T10:18:14;2.28;;;0.90;;
19036;SDS011;9651;49.138;8.900;2023-07-29T10:22:17;0.75;;;0.75;;
19036;SDS011;9651;49.138;8.900;2023-07-29T10:26:21;2.92;;;1.00;;
19036;SDS011;9651;49.138;8.900;2023-07-29T10:30:24;0.95;;;0.82;;
19036;SDS011;9651;49.138;8.900;2023-07-29T10:34:27;2.67;;;1.42;;
19036;SDS011;9651;49.138;8.900;2023-07-29T10:38:30;2.15;;;1.10;;
19036;SDS011;9651;49.138;8.900;2023-07-29T10:42:32;1.38;;;1.15;;
19036;SDS011;9651;49.138;8.900;2023-07-29T10:46:35;1.30;;;1.08;;
19036;SDS011;9651;49.138;8.900;2023-07-29T10:50:38;1.88;;;1.00;;
19036;SDS011;9651;49.138;8.900;2023-07-29T10:54:44;1.05;;;0.98;;
19036;SDS011;9651;49.138;8.900;2023-07-29T10:58:46;1.58;;;0.93;;
19036;SDS011;9651;49.138;8.900;2023-07-29T11:02:56;0.70;;;0.70;;
19036;SDS011;9651;49.138;8.900;2023-07-29T11:07:03;1.58;;;0.90;;
19036;SDS011;9651;49.138;8.900;2023-07-29T11:11:23;1.20;;;1.00;;
19036;SDS011;9651;49.138;8.900;2023-07-29T11:15:25;1.83;;;1.10;;
19036;SDS011;9651;49.138;8.900;2023-07-29T11:19:28;11.32;;;1.85;;
19036;SDS011;9651;49.138;8.900;2023-07-29T11:23:32;6.95;;;1.70;;
19036;SDS011;9651;49.138;8.900;2023-07-29T11:27:35;5.35;;;1.75;;
19036;SDS011;9651;49.138;8.900;2023-07-29T11:31:40;2.05;;;1.23;;
19036;SDS011;9651;49.138;8.900;2023-07-29T11:35:42;3.60;;;1.10;;
19036;SDS011;9651;49.138;8.900;2023-07-29T11:39:45;2.33;;;1.20;;
19036;SDS011;9651;49.138;8.900;2023-07-29T11:43:47;1.80;;;1.27;;
19036;SDS011;9651;49.138;8.900;2023-07-29T11:47:48;1.15;;;1.00;;
19036;SDS011;9651;49.138;8.900;2023-07-29T11:51:50;1.80;;;1.30;;
19036;SDS011;9651;49.138;8.900;2023-07-29T11:55:55;1.10;;;1.00;;
19036;SDS011;9651;49.138;8.900;2023-07-29T11:59:57;1.40;;;1.00;;
19036;SDS011;9651;49.138;8.900;2023-07-29T12:03:59;1.60;;;1.00;;
19036;SDS011;9651;49.138;8.900;2023-07-29T12:08:01;1.20;;;1.10;;
19036;SDS011;9651;49.138;8.900;2023-07-29T12:12:05;2.85;;;1.15;;
19036;SDS011;9651;49.138;8.900;2023-07-29T12:16:08;1.17;;;1.02;;
19036;SDS011;9651;49.138;8.900;2023-07-29T12:20:10;0.93;;;0.82;;
19036;SDS011;9651;49.138;8.900;2023-07-29T12:24:12;1.20;;;1.10;;
19036;SDS011;9651;49.138;8.900;2023-07-29T12:28:16;1.35;;;1.25;;
19036;SDS011;9651;49.138;8.900;2023-07-29T12:32:17;1.80;;;1.20;;
19036;SDS011;9651;49.138;8.900;2023-07-29T12:36:19;0.93;;;0.93;;
19036;SDS011;9651;49.138;8.900;2023-07-29T12:40:22;1.20;;;1.10;;
19036;SDS011;9651;49.138;8.900;2023-07-29T12:44:25;1.23;;;1.10;;
19036;SDS011;9651;49.138;8.900;2023-07-29T12:48:31;2.30;;;1.20;;
19036;SDS011;9651;49.138;8.900;2023-07-29T12:52:33;1.00;;;0.90;;
19036;SDS011;9651;49.138;8.900;2023-07-29T12:56:35;1.05;;;0.90;;
19036;SDS011;9651;49.138;8.900;2023-07-29T13:00:38;2.72;;;1.00;;
19036;SDS011;9651;49.138;8.900;2023-07-29T13:04:40;1.27;;;1.17;;
19036;SDS011;9651;49.138;8.900;2023-07-29T13:08:42;1.80;;;1.30;;
19036;SDS011;9651;49.138;8.900;2023-07-29T13:12:44;1.35;;;1.23;;
19036;SDS011;9651;49.138;8.900;2023-07-29T13:16:47;1.40;;;1.30;;
19036;SDS011;9651;49.138;8.900;2023-07-29T13:20:49;1.65;;;1.33;;
19036;SDS011;9651;49.138;8.900;2023-07-29T13:24:51;2.72;;;1.20;;
19036;SDS011;9651;49.138;8.900;2023-07-29T13:28:53;1.50;;;1.33;;
19036;SDS011;9651;49.138;8.900;2023-07-29T13:32:57;3.60;;;1.25;;
19036;SDS011;9651;49.138;8.900;2023-07-29T13:36:59;1.63;;;1.33;;
19036;SDS011;9651;49.138;8.900;2023-07-29T13:41:01;1.17;;;1.05;;
19036;SDS011;9651;49.138;8.900;2023-07-29T13:45:03;1.67;;;1.20;;
19036;SDS011;9651;49.138;8.900;2023-07-29T13:49:07;2.47;;;1.40;;
19036;SDS011;9651;49.138;8.900;2023-07-29T13:53:09;1.40;;;1.08;;
19036;SDS011;9651;49.138;8.900;2023-07-29T13:57:14;1.52;;;1.30;;
19036;SDS011;9651;49.138;8.900;2023-07-29T14:01:15;1.33;;;1.15;;
19036;SDS011;9651;49.138;8.900;2023-07-29T14:05:19;2.25;;;1.10;;
19036;SDS011;9651;49.138;8.900;2023-07-29T14:09:20;1.40;;;1.30;;
19036;SDS011;9651;49.138;8.900;2023-07-29T14:13:22;3.97;;;1.10;;
19036;SDS011;9651;49.138;8.900;2023-07-29T14:17:24;1.27;;;1.17;;
19036;SDS011;9651;49.138;8.900;2023-07-29T14:21:28;3.72;;;1.48;;
19036;SDS011;9651;49.138;8.900;2023-07-29T14:25:30;1.35;;;1.15;;
19036;SDS011;9651;49.138;8.900;2023-07-29T14:29:32;1.20;;;1.10;;
19036;SDS011;9651;49.138;8.900;2023-07-29T14:33:34;2.72;;;1.58;;
19036;SDS011;9651;49.138;8.900;2023-07-29T14:37:37;1.20;;;1.10;;
19036;SDS011;9651;49.138;8.900;2023-07-29T14:41:39;1.30;;;1.20;;
19036;SDS011;9651;49.138;8.900;2023-07-29T14:45:41;1.80;;;1.30;;
19036;SDS011;9651;49.138;8.900;2023-07-29T14:49:43;2.25;;;1.38;;
19036;SDS011;9651;49.138;8.900;2023-07-29T14:53:46;2.30;;;1.40;;
19036;SDS011;9651;49.138;8.900;2023-07-29T14:57:48;1.65;;;1.38;;
19036;SDS011;9651;49.138;8.900;2023-07-29T15:01:50;2.30;;;1.10;;
19036;SDS011;9651;49.138;8.900;2023-07-29T15:05:52;2.95;;;1.50;;
19036;SDS011;9651;49.138;8.900;2023-07-29T15:09:56;1.38;;;1.27;;
19036;SDS011;9651;49.138;8.900;2023-07-29T15:13:57;1.40;;;1.13;;
19036;SDS011;9651;49.138;8.900;2023-07-29T15:17:59;2.22;;;1.50;;
19036;SDS011;9651;49.138;8.900;2023-07-29T15:22:01;1.55;;;1.40;;
19036;SDS011;9651;49.138;8.900;2023-07-29T15:26:06;4.20;;;1.35;;
19036;SDS011;9651;49.138;8.900;2023-07-29T15:30:08;1.65;;;1.13;;
19036;SDS011;9651;49.138;8.900;2023-07-29T15:34:12;1.65;;;1.48;;
19036;SDS011;9651;49.138;8.900;2023-07-29T15:38:14;2.65;;;1.10;;
19036;SDS011;9651;49.138;8.900;2023-07-29T15:42:17;3.25;;;1.30;;
19036;SDS011;9651;49.138;8.900;2023-07-29T15:46:19;2.08;;;1.35;;
19036;SDS011;9651;49.138;8.900;2023-07-29T15:50:21;1.30;;;1.20;;
19036;SDS011;9651;49.138;8.900;2023-07-29T15:54:23;4.30;;;1.75;;
19036;SDS011;9651;49.138;8.900;2023-07-29T15:58:26;1.55;;;1.30;;
19036;SDS011;9651;49.138;8.900;2023-07-29T16:02:28;1.60;;;1.50;;
19036;SDS011;9651;49.138;8.900;2023-07-29T16:06:29;2.55;;;1.60;;
19036;SDS011;9651;49.138;8.900;2023-07-29T16:10:31;1.67;;;1.40;;
19036;SDS011;9651;49.138;8.900;2023-07-29T16:14:34;2.30;;;1.40;;
19036;SDS011;9651;49.138;8.900;2023-07-29T16:18:36;1.50;;;1.40;;
19036;SDS011;9651;49.138;8.900;2023-07-29T16:22:38;1.75;;;1.42;;
19036;SDS011;9651;49.138;8.900;2023-07-29T16:26:40;1.70;;;1.40;;
19036;SDS011;9651;49.138;8.900;2023-07-29T16:30:43;1.50;;;1.40;;
19036;SDS011;9651;49.138;8.900;2023-07-29T16:34:45;1.65;;;1.55;;
19036;SDS011;9651;49.138;8.900;2023-07-29T16:38:47;2.00;;;1.83;;
19036;SDS011;9651;49.138;8.900;2023-07-29T16:42:49;1.58;;;1.48;;
19036;SDS011;9651;49.138;8.900;2023-07-29T16:46:52;2.03;;;1.67;;
19036;SDS011;9651;49.138;8.900;2023-07-29T16:50:54;1.83;;;1.73;;
19036;SDS011;9651;49.138;8.900;2023-07-29T16:54:56;4.25;;;2.13;;
19036;SDS011;9651;49.138;8.900;2023-07-29T16:58:58;2.55;;;1.75;;
19036;SDS011;9651;49.138;8.900;2023-07-29T17:03:01;1.65;;;1.55;;
19036;SDS011;9651;49.138;8.900;2023-07-29T17:07:03;3.05;;;1.95;;
19036;SDS011;9651;49.138;8.900;2023-07-29T17:11:05;2.83;;;2.13;;
19036;SDS011;9651;49.138;8.900;2023-07-29T17:15:07;2.25;;;1.88;;
19036;SDS011;9651;49.138;8.900;2023-07-29T17:19:11;2.72;;;2.22;;
19036;SDS011;9651;49.138;8.900;2023-07-29T17:23:13;5.43;;;1.70;;
19036;SDS011;9651;49.138;8.900;2023-07-29T17:27:15;2.03;;;1.63;;
19036;SDS011;9651;49.138;8.900;2023-07-29T17:31:17;1.80;;;1.58;;
19036;SDS011;9651;49.138;8.900;2023-07-29T17:35:20;3.17;;;1.90;;
19036;SDS011;9651;49.138;8.900;2023-07-29T17:39:22;2.58;;;1.77;;
19036;SDS011;9651;49.138;8.900;2023-07-29T17:43:24;1.55;;;1.45;;
19036;SDS011;9651;49.138;8.900;2023-07-29T17:47:25;2.25;;;2.05;;
19036;SDS011;9651;49.138;8.900;2023-07-29T17:51:29;4.55;;;2.28;;
19036;SDS011;9651;49.138;8.900;2023-07-29T17:55:35;2.42;;;1.80;;
19036;SDS011;9651;49.138;8.900;2023-07-29T17:59:37;1.77;;;1.63;;
19036;SDS011;9651;49.138;8.900;2023-07-29T18:03:39;2.60;;;2.33;;
19036;SDS011;9651;49.138;8.900;2023-07-29T18:07:42;2.45;;;2.10;;
19036;SDS011;9651;49.138;8.900;2023-07-29T18:11:44;3.90;;;2.03;;
19036;SDS011;9651;49.138;8.900;2023-07-29T18:15:49;4.03;;;2.30;;
19036;SDS011;9651;49.138;8.900;2023-07-29T18:19:52;3.55;;;2.15;;
19036;SDS011;9651;49.138;8.900;2023-07-29T18:23:55;3.88;;;2.70;;
19036;SDS011;9651;49.138;8.900;2023-07-29T18:27:57;3.33;;;2.35;;
19036;SDS011;9651;49.138;8.900;2023-07-29T18:31:59;3.40;;;2.25;;
19036;SDS011;9651;49.138;8.900;2023-07-29T18:36:01;2.10;;;1.90;;
19036;SDS011;9651;49.138;8.900;2023-07-29T18:40:06;3.47;;;2.10;;
19036;SDS011;9651;49.138;8.900;2023-07-29T18:44:09;3.03;;;2.13;;
19036;SDS011;9651;49.138;8.900;2023-07-29T18:48:10;2.92;;;2.17;;
19036;SDS011;9651;49.138;8.900;2023-07-29T18:52:13;3.72;;;2.45;;
19036;SDS011;9651;49.138;8.900;2023-07-29T18:56:16;4.70;;;2.50;;
19036;SDS011;9651;49.138;8.900;2023-07-29T19:00:18;4.03;;;2.33;;
19036;SDS011;9651;49.138;8.900;2023-07-29T19:04:20;3.53;;;2.58;;
19036;SDS011;9651;49.138;8.900;2023-07-29T19:08:21;3.83;;;2.22;;
19036;SDS011;9651;49.138;8.900;2023-07-29T19:12:25;4.18;;;2.78;;
19036;SDS011;9651;49.138;8.900;2023-07-29T19:16:27;2.90;;;2.20;;
19036;SDS011;9651;49.138;8.900;2023-07-29T19:20:29;2.75;;;2.10;;
19036;SDS011;9651;49.138;8.900;2023-07-29T19:24:34;2.40;;;2.20;;
19036;SDS011;9651;49.138;8.900;2023-07-29T19:28:37;3.85;;;2.20;;
19036;SDS011;9651;49.138;8.900;2023-07-29T19:32:39;2.90;;;2.10;;
19036;SDS011;9651;49.138;8.900;2023-07-29T19:36:41;3.65;;;2.35;;
19036;SDS011;9651;49.138;8.900;2023-07-29T19:40:42;5.78;;;2.90;;
19036;SDS011;9651;49.138;8.900;2023-07-29T19:44:46;3.80;;;2.50;;
19036;SDS011;9651;49.138;8.900;2023-07-29T19:48:48;3.20;;;2.10;;
19036;SDS011;9651;49.138;8.900;2023-07-29T19:52:51;2.40;;;1.90;;
19036;SDS011;9651;49.138;8.900;2023-07-29T19:56:53;2.63;;;2.33;;
19036;SDS011;9651;49.138;8.900;2023-07-29T20:00:57;3.60;;;2.35;;
19036;SDS011;9651;49.138;8.900;2023-07-29T20:04:58;3.65;;;2.30;;
19036;SDS011;9651;49.138;8.900;2023-07-29T20:09:00;2.42;;;2.13;;
19036;SDS011;9651;49.138;8.900;2023-07-29T20:13:02;4.28;;;2.28;;
19036;SDS011;9651;49.138;8.900;2023-07-29T20:17:06;2.33;;;2.13;;
19036;SDS011;9651;49.138;8.900;2023-07-29T20:21:07;5.45;;;2.10;;
19036;SDS011;9651;49.138;8.900;2023-07-29T20:25:09;4.45;;;2.10;;
19036;SDS011;9651;49.138;8.900;2023-07-29T20:29:11;3.17;;;2.80;;
19036;SDS011;9651;49.138;8.900;2023-07-29T20:33:15;7.38;;;3.03;;
19036;SDS011;9651;49.138;8.900;2023-07-29T20:37:17;4.15;;;2.10;;
19036;SDS011;9651;49.138;8.900;2023-07-29T20:41:19;2.35;;;2.13;;
19036;SDS011;9651;49.138;8.900;2023-07-29T20:45:21;4.13;;;2.45;;
19036;SDS011;9651;49.138;8.900;2023-07-29T20:49:24;2.67;;;2.40;;
19036;SDS011;9651;49.138;8.900;2023-07-29T20:53:26;5.30;;;2.38;;
19036;SDS011;9651;49.138;8.900;2023-07-29T20:57:28;7.68;;;2.35;;
19036;SDS011;9651;49.138;8.900;2023-07-29T21:01:30;5.22;;;2.75;;
19036;SDS011;9651;49.138;8.900;2023-07-29T21:05:35;5.78;;;2.92;;
19036;SDS011;9651;49.138;8.900;2023-07-29T21:09:37;3.65;;;2.65;;
19036;SDS011;9651;49.138;8.900;2023-07-29T21:13:39;2.90;;;2.45;;
19036;SDS011;9651;49.138;8.900;2023-07-29T21:17:41;3.17;;;2.72;;
19036;SDS011;9651;49.138;8.900;2023-07-29T21:21:44;5.85;;;3.17;;
19036;SDS011;9651;49.138;8.900;2023-07-29T21:25:47;5.32;;;3.17;;
19036;SDS011;9651;49.138;8.900;2023-07-29T21:29:49;5.28;;;2.90;;
19036;SDS011;9651;49.138;8.900;2023-07-29T21:33:51;3.25;;;2.70;;
19036;SDS011;9651;49.138;8.900;2023-07-29T21:37:54;2.67;;;2.35;;
19036;SDS011;9651;49.138;8.900;2023-07-29T21:41:56;2.70;;;2.33;;
19036;SDS011;9651;49.138;8.900;2023-07-29T21:45:58;2.72;;;2.25;;
19036;SDS011;9651;49.138;8.900;2023-07-29T21:50:00;2.42;;;2.15;;
19036;SDS011;9651;49.138;8.900;2023-07-29T21:54:03;3.33;;;2.50;;
19036;SDS011;9651;49.138;8.900;2023-07-29T21:58:05;3.67;;;2.60;;
19036;SDS011;9651;49.138;8.900;2023-07-29T22:02:07;5.78;;;3.03;;
19036;SDS011;9651;49.138;8.900;2023-07-29T22:06:11;5.32;;;2.78;;
19036;SDS011;9651;49.138;8.900;2023-07-29T22:10:14;5.43;;;2.90;;
19036;SDS011;9651;49.138;8.900;2023-07-29T22:14:16;3.88;;;2.60;;
19036;SDS011;9651;49.138;8.900;2023-07-29T22:18:19;6.03;;;2.55;;
19036;SDS011;9651;49.138;8.900;2023-07-29T22:22:21;5.25;;;2.85;;
19036;SDS011;9651;49.138;8.900;2023-07-29T22:26:24;5.53;;;2.95;;
19036;SDS011;9651;49.138;8.900;2023-07-29T22:30:26;4.78;;;2.88;;
19036;SDS011;9651;49.138;8.900;2023-07-29T22:34:28;4.53;;;3.25;;
19036;SDS011;9651;49.138;8.900;2023-07-29T22:38:30;3.95;;;2.65;;
19036;SDS011;9651;49.138;8.900;2023-07-29T22:42:35;5.53;;;3.90;;
19036;SDS011;9651;49.138;8.900;2023-07-29T22:46:37;5.10;;;3.45;;
19036;SDS011;9651;49.138;8.900;2023-07-29T22:50:39;6.50;;;2.95;;
19036;SDS011;9651;49.138;8.900;2023-07-29T22:54:40;3.97;;;3.03;;
19036;SDS011;9651;49.138;8.900;2023-07-29T22:58:44;4.90;;;3.03;;
19036;SDS011;9651;49.138;8.900;2023-07-29T23:02:45;6.13;;;3.58;;
19036;SDS011;9651;49.138;8.900;2023-07-29T23:06:47;8.30;;;3.20;;
19036;SDS011;9651;49.138;8.900;2023-07-29T23:10:49;3.58;;;3.17;;
19036;SDS011;9651;49.138;8.900;2023-07-29T23:14:52;3.67;;;3.10;;
19036;SDS011;9651;49.138;8.900;2023-07-29T23:18:54;3.88;;;2.97;;
19036;SDS011;9651;49.138;8.900;2023-07-29T23:22:56;4.40;;;2.95;;
19036;SDS011;9651;49.138;8.900;2023-07-29T23:26:58;3.10;;;2.58;;
19036;SDS011;9651;49.138;8.900;2023-07-29T23:31:01;5.25;;;3.10;;
19036;SDS011;9651;49.138;8.900;2023-07-29T23:35:03;3.58;;;2.80;;
19036;SDS011;9651;49.138;8.900;2023-07-29T23:39:05;5.10;;;2.63;;
19036;SDS011;9651;49.138;8.900;2023-07-29T23:43:07;5.40;;;2.40;;
19036;SDS011;9651;49.138;8.900;2023-07-29T23:47:10;3.03;;;2.50;;
19036;SDS011;9651;49.138;8.900;2023-07-29T23:51:12;4.10;;;2.80;;
19036;SDS011;9651;49.138;8.900;2023-07-29T23:55:14;2.45;;;2.25;;
19036;SDS011;9651;49.138;8.900;2023-07-29T23:59:16;2.53;;;2.00;;
